createdAt,value
2022-12-27T00:00:52.123Z,1.48
2022-12-27T00:06:25.579Z,1.08
2022-12-27T00:11:59.949Z,1.33
2022-12-27T00:17:31.484Z,0.60
2022-12-27T00:23:02.760Z,0.95
2022-12-27T00:28:34.659Z,0.57
2022-12-27T00:34:08.622Z,1.10
2022-12-27T00:39:39.565Z,0.75
2022-12-27T00:45:11.421Z,0.55
2022-12-27T00:50:43.905Z,0.70
2022-12-27T00:56:21.296Z,1.33
2022-12-27T01:01:52.717Z,0.65
2022-12-27T01:07:24.853Z,0.88
2022-12-27T01:12:56.656Z,0.68
2022-12-27T01:18:28.429Z,1.00
2022-12-27T01:23:59.868Z,0.70
2022-12-27T01:29:32.341Z,0.68
2022-12-27T01:35:03.422Z,2.13
2022-12-27T01:40:36.955Z,0.70
2022-12-27T01:46:08.102Z,0.30
2022-12-27T01:51:40.243Z,1.67
2022-12-27T01:57:11.672Z,0.50
2022-12-27T02:02:43.354Z,1.00
2022-12-27T02:08:26.007Z,0.50
2022-12-27T02:13:57.687Z,0.60
2022-12-27T02:19:41.057Z,0.50
2022-12-27T02:25:50.697Z,1.00
2022-12-27T02:31:30.012Z,0.60
2022-12-27T02:37:05.521Z,0.70
2022-12-27T02:42:55.087Z,0.82
2022-12-27T02:48:44.822Z,0.55
2022-12-27T02:54:41.998Z,0.57
2022-12-27T03:00:37.762Z,1.00
2022-12-27T03:06:42.900Z,1.75
2022-12-27T03:12:56.928Z,3.00
2022-12-27T03:18:31.320Z,1.10
2022-12-27T03:24:36.323Z,1.00
2022-12-27T03:30:28.318Z,1.10
2022-12-27T03:36:23.590Z,1.33
2022-12-27T03:42:19.021Z,1.10
2022-12-27T03:48:04.281Z,1.35
2022-12-27T03:53:41.308Z,1.90
2022-12-27T03:59:13.764Z,1.45
2022-12-27T04:04:46.641Z,1.75
2022-12-27T04:10:36.355Z,1.23
2022-12-27T04:16:26.379Z,1.67
2022-12-27T04:22:16.436Z,3.55
2022-12-27T04:28:06.765Z,1.08
2022-12-27T04:33:56.593Z,2.22
2022-12-27T04:39:27.961Z,1.48
2022-12-27T04:45:17.824Z,1.73
2022-12-27T04:51:07.768Z,1.75
2022-12-27T04:56:39.110Z,1.35
2022-12-27T05:02:10.676Z,1.83
2022-12-27T05:08:00.988Z,2.42
2022-12-27T05:13:51.174Z,1.30
2022-12-27T05:19:22.479Z,2.53
2022-12-27T05:25:12.382Z,1.58
2022-12-27T05:30:44.629Z,1.60
2022-12-27T05:36:15.899Z,1.98
2022-12-27T05:41:47.017Z,2.10
2022-12-27T05:47:18.030Z,1.60
2022-12-27T05:52:49.260Z,1.63
2022-12-27T05:58:20.237Z,1.67
2022-12-27T06:03:51.658Z,1.70
2022-12-27T06:09:23.033Z,2.53
2022-12-27T06:14:54.233Z,1.58
2022-12-27T06:20:25.644Z,4.55
2022-12-27T06:25:56.701Z,1.77
2022-12-27T06:31:29.479Z,2.55
2022-12-27T06:37:00.732Z,2.00
2022-12-27T06:42:32.016Z,1.90
2022-12-27T06:48:02.924Z,1.88
2022-12-27T06:53:34.280Z,1.95
2022-12-27T06:59:05.861Z,1.48
2022-12-27T07:04:38.143Z,2.38
2022-12-27T07:10:10.253Z,1.80
2022-12-27T07:15:41.267Z,2.28
2022-12-27T07:21:15.150Z,2.58
2022-12-27T07:26:46.104Z,1.80
2022-12-27T07:32:18.062Z,2.00
2022-12-27T07:37:49.322Z,2.13
2022-12-27T07:43:20.887Z,1.70
2022-12-27T07:48:56.529Z,2.00
2022-12-27T07:54:27.994Z,1.90
2022-12-27T07:59:59.144Z,3.45
2022-12-27T08:05:30.563Z,1.67
2022-12-27T08:11:05.453Z,4.47
2022-12-27T08:16:37.422Z,3.13
2022-12-27T08:22:10.087Z,2.33
2022-12-27T08:27:41.328Z,4.28
2022-12-27T08:33:12.802Z,4.28
2022-12-27T08:38:43.959Z,2.25
2022-12-27T08:44:15.228Z,2.45
2022-12-27T08:49:46.383Z,2.45
2022-12-27T08:55:17.432Z,2.85
2022-12-27T09:00:48.350Z,4.03
2022-12-27T09:06:22.287Z,4.75
2022-12-27T09:11:53.505Z,3.28
2022-12-27T09:17:24.676Z,1.80
2022-12-27T09:22:55.482Z,3.50
2022-12-27T09:28:27.168Z,2.08
2022-12-27T09:33:59.003Z,2.75
2022-12-27T09:39:30.180Z,4.10
2022-12-27T09:45:09.141Z,2.00
2022-12-27T09:50:51.973Z,1.80
2022-12-27T09:56:53.981Z,2.70
2022-12-27T10:02:28.648Z,1.85
2022-12-27T10:08:07.971Z,1.33
2022-12-27T10:13:50.382Z,2.58
2022-12-27T10:19:31.425Z,3.95
2022-12-27T10:25:12.345Z,1.92
2022-12-27T10:30:44.355Z,2.17
2022-12-27T10:36:25.612Z,4.10
2022-12-27T10:42:11.202Z,3.67
2022-12-27T10:47:43.476Z,5.55
2022-12-27T10:53:38.661Z,2.35
2022-12-27T10:59:13.846Z,2.38
2022-12-27T11:05:11.179Z,3.42
2022-12-27T11:10:42.918Z,2.38
2022-12-27T11:16:19.113Z,2.85
2022-12-27T11:21:50.717Z,2.78
2022-12-27T11:27:28.418Z,2.20
2022-12-27T11:33:04.779Z,2.53
2022-12-27T11:38:37.562Z,4.20
2022-12-27T11:44:08.721Z,2.05
2022-12-27T11:50:11.674Z,4.13
2022-12-27T11:56:16.636Z,3.67
2022-12-27T12:02:15.658Z,2.35
2022-12-27T12:08:05.407Z,2.42
2022-12-27T12:14:04.407Z,3.58
2022-12-27T12:20:02.683Z,3.40
2022-12-27T12:25:48.534Z,5.28
2022-12-27T12:31:38.175Z,5.18
2022-12-27T12:37:46.790Z,3.50
2022-12-27T12:43:36.066Z,1.88
2022-12-27T12:49:45.931Z,2.38
2022-12-27T12:55:38.141Z,2.33
2022-12-27T13:01:26.318Z,3.85
2022-12-27T13:07:03.523Z,2.88
2022-12-27T13:12:52.448Z,2.10
2022-12-27T13:18:47.814Z,3.33
2022-12-27T13:24:46.465Z,2.28
2022-12-27T13:30:36.523Z,2.15
2022-12-27T13:36:26.823Z,1.33
2022-12-27T13:42:27.754Z,2.15
2022-12-27T13:48:05.035Z,3.50
2022-12-27T13:53:51.079Z,3.03
2022-12-27T13:59:43.654Z,2.45
2022-12-27T14:05:44.777Z,4.18
2022-12-27T14:11:57.707Z,1.67
2022-12-27T14:17:54.619Z,2.42
2022-12-27T14:23:53.415Z,5.43
2022-12-27T14:29:42.553Z,2.65
2022-12-27T14:35:42.795Z,2.45
2022-12-27T14:41:51.843Z,3.47
2022-12-27T14:47:41.350Z,3.78
2022-12-27T14:53:33.442Z,4.88
2022-12-27T14:59:10.296Z,3.78
2022-12-27T15:05:11.782Z,4.03
2022-12-27T15:10:43.122Z,2.30
2022-12-27T15:16:19.957Z,3.70
2022-12-27T15:22:00.271Z,3.90
2022-12-27T15:27:39.103Z,3.67
2022-12-27T15:33:25.417Z,4.75
2022-12-27T15:38:57.486Z,4.32
2022-12-27T15:44:40.539Z,2.63
2022-12-27T15:50:33.302Z,3.13
2022-12-27T15:56:38.265Z,2.53
2022-12-27T16:02:22.868Z,2.33
2022-12-27T16:08:00.237Z,2.53
2022-12-27T16:13:36.071Z,3.28
2022-12-27T16:19:25.404Z,3.17
2022-12-27T16:24:56.915Z,3.40
2022-12-27T16:30:42.381Z,2.50
2022-12-27T16:36:13.787Z,2.22
2022-12-27T16:41:55.164Z,2.22
2022-12-27T16:47:32.434Z,2.15
2022-12-27T16:53:23.507Z,2.40
2022-12-27T16:58:54.812Z,3.40
2022-12-27T17:04:51.963Z,2.45
2022-12-27T17:10:30.855Z,3.63
2022-12-27T17:16:05.139Z,3.97
2022-12-27T17:21:38.337Z,2.75
2022-12-27T17:27:47.347Z,2.23
2022-12-27T17:33:57.737Z,4.40
2022-12-27T17:39:52.113Z,3.47
2022-12-27T17:45:51.072Z,2.67
2022-12-27T17:51:28.680Z,2.70
2022-12-27T17:57:19.666Z,4.10
2022-12-27T18:02:51.697Z,4.70
2022-12-27T18:08:31.096Z,5.30
2022-12-27T18:14:02.458Z,2.38
2022-12-27T18:19:33.747Z,3.78
2022-12-27T18:25:24.380Z,2.35
2022-12-27T18:31:11.768Z,6.65
2022-12-27T18:36:48.886Z,3.63
2022-12-27T18:42:28.757Z,6.35
2022-12-27T18:48:02.005Z,3.22
2022-12-27T18:53:36.300Z,3.28
2022-12-27T18:59:16.537Z,4.88
2022-12-27T19:05:13.514Z,5.43
2022-12-27T19:10:49.791Z,5.70
2022-12-27T19:16:29.475Z,3.30
2022-12-27T19:22:00.808Z,4.22
2022-12-27T19:27:32.096Z,3.28
2022-12-27T19:33:25.873Z,3.17
2022-12-27T19:38:58.757Z,5.65
2022-12-27T19:44:30.599Z,3.63
2022-12-27T19:50:01.805Z,4.88
2022-12-27T19:55:36.377Z,4.85
2022-12-27T20:01:07.541Z,5.10
2022-12-27T20:06:39.276Z,6.38
2022-12-27T20:12:10.312Z,3.00
2022-12-27T20:17:44.926Z,4.68
2022-12-27T20:23:17.843Z,4.95
2022-12-27T20:28:50.048Z,4.75
2022-12-27T20:34:21.263Z,4.40
2022-12-27T20:39:52.320Z,4.63
2022-12-27T20:45:23.895Z,6.07
2022-12-27T20:50:55.097Z,5.82
2022-12-27T20:56:26.568Z,4.55
2022-12-27T21:01:59.094Z,6.22
2022-12-27T21:07:31.041Z,4.30
2022-12-27T21:13:02.520Z,5.45
2022-12-27T21:18:34.350Z,3.90
2022-12-27T21:24:08.310Z,4.85
2022-12-27T21:29:39.438Z,4.28
2022-12-27T21:35:11.146Z,4.68
2022-12-27T21:40:42.096Z,6.28
2022-12-27T21:46:16.376Z,6.45
2022-12-27T21:51:47.658Z,5.28
2022-12-27T21:57:18.887Z,5.82
2022-12-27T22:02:52.718Z,3.78
2022-12-27T22:08:24.029Z,6.05
2022-12-27T22:13:55.211Z,3.67
2022-12-27T22:19:26.934Z,5.28
2022-12-27T22:24:58.077Z,7.07
2022-12-27T22:30:28.987Z,6.18
2022-12-27T22:36:08.996Z,5.03
2022-12-27T22:41:40.358Z,6.13
2022-12-27T22:47:27.930Z,5.20
2022-12-27T22:52:59.883Z,4.47
2022-12-27T22:58:33.791Z,6.88
2022-12-27T23:04:06.566Z,5.80
2022-12-27T23:09:43.045Z,5.45
2022-12-27T23:15:14.951Z,5.70
2022-12-27T23:21:19.255Z,5.55
2022-12-27T23:26:37.947Z,5.30
2022-12-27T23:32:09.061Z,5.45
2022-12-27T23:37:40.094Z,5.28
2022-12-27T23:43:41.960Z,6.18
2022-12-27T23:49:03.670Z,5.65
2022-12-27T23:54:34.589Z,5.80
